< < Back
Terminal Aerodrome Forecast


Current Version              Previous Versions:   1  2  3  4  5  6  7  8  9  

Terminal Aerodrome Forecast

976
FTUS42 KGSP 161700
TAFGSP
TAF
KGSP 161737Z 1618/1718 07011KT P6SM SKC
     FM170000 06007KT P6SM FEW250
     FM171400 04010KT P6SM SCT250=



Latest METAR

073
SAUS70 KWBC 170700 RRC
MTRGSP
METAR KGSP 170653Z AUTO 02004KT 10SM CLR 04/M01 A3041 RMK AO2 SLP299
T00441011


USA.gov is the U.S. government's official web portal to all federal, state and local government web resources and services.